Time;durP1;ratioP1;P1;durP2;ratioP2;P2;SDS_P1;SDS_P2;PMS_P1;PMS_P2;Temp;Humidity;BMP_temperature;BMP_pressure;BME280_temperature;BME280_humidity;BME280_pressure;Samples;Min_cycle;Max_cycle;Signal;HPM_P1;HPM_P2
2023/12/02 00:02:00;;;;;;;1.92;0.50;;;10.10;53.50;;;;;;7401667;19;20002;-73
2023/12/02 00:04:26;;;;;;;2.20;0.60;;;10.10;53.30;;;;;;7396751;19;20578;-73
2023/12/02 00:06:53;;;;;;;1.80;0.68;;;10.20;53.50;;;;;;7398796;19;19930;-73
2023/12/02 00:09:18;;;;;;;2.28;0.80;;;10.10;53.50;;;;;;7379016;19;19932;-73
2023/12/02 00:11:49;;;;;;;3.00;0.68;;;10.20;53.70;;;;;;7398031;19;20378;-73
2023/12/02 00:14:16;;;;;;;2.47;0.80;;;10.10;54.40;;;;;;7400174;19;19970;-72
2023/12/02 00:16:41;;;;;;;1.75;0.60;;;10.10;54.30;;;;;;7376900;19;19925;-73
2023/12/02 00:19:07;;;;;;;1.85;0.55;;;10.10;54.30;;;;;;7400718;19;19922;-73
2023/12/02 00:21:33;;;;;;;1.63;0.50;;;10.10;54.20;;;;;;7400318;19;19919;-72
2023/12/02 00:23:59;;;;;;;2.42;0.55;;;10.10;54.50;;;;;;7393350;19;19911;-73
2023/12/02 00:26:24;;;;;;;2.03;0.50;;;10.10;54.60;;;;;;7397410;19;19914;-73
2023/12/02 00:28:50;;;;;;;2.30;0.70;;;10.00;55.00;;;;;;7398594;19;19991;-72
2023/12/02 00:31:16;;;;;;;1.75;0.50;;;10.00;54.50;;;;;;7394318;19;19979;-72
2023/12/02 00:33:42;;;;;;;1.95;0.52;;;9.90;54.60;;;;;;7399594;19;19923;-73
2023/12/02 00:36:08;;;;;;;1.10;0.30;;;10.00;54.40;;;;;;7395255;19;19922;-72
2023/12/02 00:38:35;;;;;;;2.60;0.63;;;10.10;53.60;;;;;;7400103;19;20346;-72
2023/12/02 00:41:01;;;;;;;1.60;0.50;;;10.00;54.70;;;;;;7400820;19;19939;-71
2023/12/02 00:43:26;;;;;;;2.60;0.63;;;10.00;54.40;;;;;;7394862;19;19919;-73
2023/12/02 00:45:52;;;;;;;1.40;0.43;;;10.00;54.50;;;;;;7399412;19;19926;-72
2023/12/02 00:48:18;;;;;;;2.05;0.55;;;9.90;54.50;;;;;;7395751;19;19919;-72
2023/12/02 00:50:44;;;;;;;2.40;0.40;;;9.80;55.70;;;;;;7398796;19;20357;-71
2023/12/02 00:53:09;;;;;;;1.55;0.47;;;9.90;55.50;;;;;;7396493;19;19982;-73
2023/12/02 00:55:35;;;;;;;1.52;0.32;;;9.80;56.10;;;;;;7399772;19;19918;-71
2023/12/02 00:58:01;;;;;;;1.42;0.40;;;9.90;56.10;;;;;;7395322;19;19911;-72
2023/12/02 01:00:26;;;;;;;3.13;0.52;;;9.80;56.50;;;;;;7397934;19;19911;-72
2023/12/02 01:02:52;;;;;;;2.53;0.52;;;9.70;57.20;;;;;;7375645;19;19967;-73
2023/12/02 01:05:18;;;;;;;1.40;0.38;;;9.70;58.10;;;;;;7397003;19;19930;-73
2023/12/02 01:07:44;;;;;;;2.05;0.40;;;9.80;58.00;;;;;;7399102;19;19910;-73
2023/12/02 01:10:12;;;;;;;3.35;1.10;;;9.90;56.20;;;;;;7397525;19;19922;-73
2023/12/02 01:12:39;;;;;;;1.67;0.70;;;9.90;56.10;;;;;;7399751;19;20298;-72
2023/12/02 01:15:05;;;;;;;1.67;0.50;;;10.00;56.10;;;;;;7400202;19;20268;-74
2023/12/02 01:17:31;;;;;;;1.58;0.52;;;10.00;56.20;;;;;;7400777;19;19910;-72
2023/12/02 01:19:57;;;;;;;1.48;0.50;;;10.00;55.80;;;;;;7400199;19;20331;-73
2023/12/02 01:22:23;;;;;;;1.05;0.30;;;10.40;55.10;;;;;;7399969;19;19945;-74
2023/12/02 01:24:49;;;;;;;2.03;0.22;;;10.50;54.70;;;;;;7400443;19;19919;-73
2023/12/02 01:27:15;;;;;;;2.25;0.40;;;10.60;54.40;;;;;;7371399;19;19918;-73
2023/12/02 01:29:40;;;;;;;1.23;0.40;;;10.50;54.50;;;;;;7396178;19;20367;-73
2023/12/02 01:32:06;;;;;;;2.05;0.47;;;10.60;54.30;;;;;;7394722;19;19944;-73
2023/12/02 01:34:32;;;;;;;1.95;0.40;;;10.60;54.40;;;;;;7396880;19;19990;-73
2023/12/02 01:36:58;;;;;;;0.90;0.50;;;10.60;54.60;;;;;;7399751;19;20287;-73
2023/12/02 01:39:23;;;;;;;3.10;0.50;;;10.50;55.00;;;;;;7398892;19;19956;-72
2023/12/02 01:41:49;;;;;;;3.30;0.75;;;10.50;55.40;;;;;;7399040;19;20273;-73
2023/12/02 01:44:15;;;;;;;2.03;0.40;;;10.50;55.70;;;;;;7398963;19;19918;-73
2023/12/02 01:46:40;;;;;;;1.52;0.40;;;10.50;56.00;;;;;;7395285;19;19926;-74
2023/12/02 01:49:08;;;;;;;3.17;0.70;;;10.50;56.40;;;;;;7396319;19;20815;-72
2023/12/02 01:51:35;;;;;;;1.90;0.32;;;10.50;56.20;;;;;;7400033;19;19968;-72
2023/12/02 01:54:01;;;;;;;2.30;0.50;;;10.50;57.10;;;;;;7376215;19;19953;-73
2023/12/02 01:56:27;;;;;;;1.92;0.40;;;10.40;57.30;;;;;;7398547;19;19923;-72
2023/12/02 01:58:53;;;;;;;0.93;0.30;;;10.40;58.20;;;;;;7399347;19;19950;-72
2023/12/02 02:01:19;;;;;;;2.78;0.30;;;10.40;59.20;;;;;;7398902;19;19923;-72
2023/12/02 02:03:48;;;;;;;1.30;0.30;;;10.40;59.20;;;;;;7400701;19;19938;-73
2023/12/02 02:06:14;;;;;;;1.60;0.50;;;10.50;59.50;;;;;;7400493;19;20340;-72
2023/12/02 02:08:40;;;;;;;2.03;0.60;;;10.50;59.80;;;;;;7402331;19;20240;-73
2023/12/02 02:11:06;;;;;;;1.27;0.30;;;10.40;60.30;;;;;;7401067;19;20075;-73
2023/12/02 02:13:33;;;;;;;2.05;0.30;;;10.40;60.60;;;;;;7405009;19;19942;-72
2023/12/02 02:15:58;;;;;;;2.70;0.32;;;10.40;61.50;;;;;;7406044;19;19937;-72
2023/12/02 02:18:24;;;;;;;2.28;0.45;;;10.40;61.60;;;;;;7403733;19;20331;-72
2023/12/02 02:20:51;;;;;;;1.20;0.40;;;10.40;61.60;;;;;;7404493;19;19914;-73
2023/12/02 02:23:22;;;;;;;1.73;0.30;;;10.30;62.30;;;;;;7398032;19;19933;-73
2023/12/02 02:25:54;;;;;;;1.48;0.50;;;10.30;62.90;;;;;;7403888;19;19943;-73
2023/12/02 02:28:24;;;;;;;0.75;0.30;;;10.30;63.10;;;;;;7401885;19;19923;-72
2023/12/02 02:30:50;;;;;;;2.17;0.63;;;10.30;63.50;;;;;;7403862;19;19910;-73
2023/12/02 02:33:16;;;;;;;1.25;0.40;;;10.30;63.80;;;;;;7403125;19;19934;-72
2023/12/02 02:35:45;;;;;;;0.77;0.40;;;10.30;63.90;;;;;;7401993;19;19922;-71
2023/12/02 02:38:11;;;;;;;4.50;0.73;;;10.30;63.40;;;;;;7400512;19;20336;-72
2023/12/02 02:40:37;;;;;;;2.17;0.40;;;10.20;64.20;;;;;;7404834;19;19918;-71
2023/12/02 02:43:03;;;;;;;1.65;0.60;;;10.10;65.70;;;;;;7401028;19;19910;-71
2023/12/02 02:45:29;;;;;;;2.15;0.55;;;10.30;65.10;;;;;;7403422;19;20764;-71
2023/12/02 02:47:55;;;;;;;1.65;0.50;;;10.20;65.70;;;;;;7402986;19;19939;-72
2023/12/02 02:50:21;;;;;;;1.45;0.52;;;10.30;65.50;;;;;;7401034;19;19914;-71
2023/12/02 02:52:47;;;;;;;1.77;0.43;;;10.30;64.90;;;;;;7403591;19;19918;-72
2023/12/02 02:55:13;;;;;;;1.60;0.60;;;10.40;65.20;;;;;;7401033;19;19934;-72
2023/12/02 02:57:38;;;;;;;1.10;0.30;;;10.30;65.50;;;;;;7400964;19;20621;-70
2023/12/02 03:00:09;;;;;;;3.22;0.65;;;10.40;65.30;;;;;;7398992;19;20246;-71
2023/12/02 03:02:38;;;;;;;2.25;0.50;;;10.30;65.20;;;;;;7403681;19;19925;-72
2023/12/02 03:05:05;;;;;;;2.67;0.75;;;10.30;65.70;;;;;;7404150;19;20289;-76
2023/12/02 03:07:34;;;;;;;2.38;0.52;;;10.30;65.90;;;;;;7401201;19;20272;-72
2023/12/02 03:10:00;;;;;;;2.10;0.40;;;10.20;66.30;;;;;;7402973;19;20288;-72
2023/12/02 03:12:27;;;;;;;1.27;0.50;;;10.20;66.70;;;;;;7403296;19;20673;-71
2023/12/02 03:14:54;;;;;;;1.52;0.43;;;10.20;66.80;;;;;;7405673;19;19922;-72
2023/12/02 03:17:20;;;;;;;1.23;0.50;;;10.10;67.20;;;;;;7402319;19;19914;-72
2023/12/02 03:19:47;;;;;;;1.80;0.52;;;10.20;67.20;;;;;;7402135;19;19982;-72
2023/12/02 03:22:13;;;;;;;1.75;0.40;;;10.10;67.50;;;;;;7403001;19;19919;-71
2023/12/02 03:24:39;;;;;;;1.77;0.60;;;10.10;67.80;;;;;;7397564;19;19922;-71
2023/12/02 03:27:05;;;;;;;0.88;0.35;;;10.20;67.80;;;;;;7401663;19;20330;-72
2023/12/02 03:29:31;;;;;;;3.63;0.60;;;10.10;68.30;;;;;;7403626;19;19986;-71
2023/12/02 03:31:56;;;;;;;2.13;0.52;;;10.10;68.70;;;;;;7404405;19;19932;-71
2023/12/02 03:34:22;;;;;;;2.53;0.60;;;10.10;68.90;;;;;;7401747;19;20362;-72
2023/12/02 03:36:48;;;;;;;1.48;0.55;;;10.10;69.70;;;;;;7404431;19;19929;-71
2023/12/02 03:39:15;;;;;;;2.55;0.50;;;10.00;70.20;;;;;;7398939;19;20761;-72
2023/12/02 03:41:43;;;;;;;3.05;0.80;;;10.00;70.50;;;;;;7403746;19;19915;-71
2023/12/02 03:44:11;;;;;;;3.20;0.73;;;10.00;71.00;;;;;;7398237;19;20008;-72
2023/12/02 03:46:37;;;;;;;2.42;0.50;;;10.00;71.20;;;;;;7401189;19;19925;-71
2023/12/02 03:49:04;;;;;;;1.80;0.55;;;9.90;71.50;;;;;;7402078;19;19918;-71
2023/12/02 03:51:30;;;;;;;;;;;10.00;71.70;;;;;;7403948;19;19922;-72
2023/12/02 03:53:56;;;;;;;2.22;0.70;;;9.90;71.90;;;;;;7402079;19;19933;-72
2023/12/02 03:56:23;;;;;;;1.05;0.45;;;10.00;71.90;;;;;;7400319;19;19934;-71
2023/12/02 03:58:50;;;;;;;2.17;0.52;;;10.00;72.10;;;;;;7403260;19;19923;-71
2023/12/02 04:01:17;;;;;;;1.98;0.50;;;9.90;72.50;;;;;;7400989;19;20453;-72
2023/12/02 04:03:44;;;;;;;1.00;0.43;;;9.90;73.20;;;;;;7401254;19;20414;-71
2023/12/02 04:06:10;;;;;;;1.40;0.40;;;9.90;73.20;;;;;;7399037;19;19974;-72
2023/12/02 04:08:36;;;;;;;1.77;0.60;;;9.90;74.30;;;;;;7403758;19;20354;-72
2023/12/02 04:11:03;;;;;;;1.67;0.68;;;9.90;74.70;;;;;;7401557;19;19925;-71
2023/12/02 04:13:29;;;;;;;2.35;0.50;;;9.80;75.40;;;;;;7402943;19;20350;-72
2023/12/02 04:15:55;;;;;;;2.50;0.50;;;9.80;76.20;;;;;;7403169;19;19922;-71
2023/12/02 04:18:20;;;;;;;2.10;0.57;;;9.80;77.20;;;;;;7396993;19;19922;-72
2023/12/02 04:20:46;;;;;;;1.88;0.60;;;9.70;77.70;;;;;;7398507;19;19918;-72
2023/12/02 04:23:14;;;;;;;1.90;0.60;;;9.70;78.50;;;;;;7403132;19;19922;-72
2023/12/02 04:25:40;;;;;;;1.75;0.45;;;9.70;79.20;;;;;;7401815;19;20405;-72
2023/12/02 04:28:05;;;;;;;2.78;0.50;;;9.70;79.50;;;;;;7399663;19;19926;-72
2023/12/02 04:30:31;;;;;;;2.78;0.70;;;9.70;80.10;;;;;;7402154;19;19915;-72
2023/12/02 04:32:57;;;;;;;1.48;0.50;;;9.70;80.40;;;;;;7399620;19;19918;-72
2023/12/02 04:35:23;;;;;;;2.20;0.60;;;9.60;81.10;;;;;;7396616;19;20327;-72
2023/12/02 04:37:49;;;;;;;1.08;0.50;;;9.60;81.60;;;;;;7402862;19;19934;-72
2023/12/02 04:40:14;;;;;;;3.00;0.57;;;9.60;82.30;;;;;;7399440;19;19919;-71
2023/12/02 04:42:41;;;;;;;1.77;0.47;;;9.60;82.70;;;;;;7401348;19;19915;-72
2023/12/02 04:45:08;;;;;;;1.60;0.60;;;9.60;82.60;;;;;;7397641;19;19929;-72
2023/12/02 04:47:36;;;;;;;1.23;0.45;;;9.60;82.70;;;;;;7400046;19;20195;-71
2023/12/02 04:50:03;;;;;;;2.13;0.93;;;9.60;83.40;;;;;;7402083;19;20608;-72
2023/12/02 04:52:30;;;;;;;1.13;0.40;;;9.50;83.90;;;;;;7401320;19;20489;-71
2023/12/02 04:54:55;;;;;;;2.22;0.70;;;9.50;84.10;;;;;;7400431;19;19922;-71
2023/12/02 04:57:21;;;;;;;1.80;0.43;;;9.50;84.20;;;;;;7400986;19;20356;-72
2023/12/02 04:59:47;;;;;;;2.47;0.80;;;9.50;84.70;;;;;;7399070;19;19959;-71
2023/12/02 05:02:13;;;;;;;1.15;0.50;;;9.40;85.30;;;;;;7402265;19;19929;-72
2023/12/02 05:04:39;;;;;;;2.35;0.82;;;9.40;86.30;;;;;;7399029;19;20583;-72
2023/12/02 05:07:06;;;;;;;2.05;0.50;;;9.50;85.90;;;;;;7394683;19;19915;-72
2023/12/02 05:09:32;;;;;;;5.38;0.60;;;9.40;86.00;;;;;;7379130;19;19911;-72
2023/12/02 05:11:58;;;;;;;1.73;0.70;;;9.40;86.40;;;;;;7397617;19;20262;-71
2023/12/02 05:14:24;;;;;;;1.45;0.50;;;9.40;86.80;;;;;;7399316;19;20232;-72
2023/12/02 05:16:50;;;;;;;1.83;0.73;;;9.30;87.90;;;;;;7399400;19;19943;-72
2023/12/02 05:19:15;;;;;;;1.35;0.52;;;9.30;88.30;;;;;;7397866;19;19919;-71
2023/12/02 05:21:43;;;;;;;1.50;0.60;;;9.30;88.30;;;;;;7399750;19;20327;-72
2023/12/02 05:24:08;;;;;;;;;;;9.20;88.80;;;;;;7396085;19;19914;-71
2023/12/02 05:26:34;;;;;;;1.70;0.73;;;9.20;89.70;;;;;;7400471;19;19942;-71
2023/12/02 05:29:01;;;;;;;0.98;0.55;;;9.10;89.90;;;;;;7397129;19;19922;-71
2023/12/02 05:31:27;;;;;;;1.92;0.80;;;9.20;90.10;;;;;;7401099;19;19923;-71
2023/12/02 05:33:53;;;;;;;2.03;0.60;;;9.20;90.00;;;;;;7405425;19;19915;-72
2023/12/02 05:36:18;;;;;;;2.17;0.60;;;9.10;90.00;;;;;;7404143;19;19950;-72
2023/12/02 05:38:45;;;;;;;1.60;0.50;;;9.00;90.10;;;;;;7403873;19;19915;-72
2023/12/02 05:41:10;;;;;;;1.48;0.60;;;9.10;90.10;;;;;;7406148;19;19923;-71
2023/12/02 05:43:36;;;;;;;3.58;0.82;;;9.20;89.70;;;;;;7404615;19;19911;-72
2023/12/02 05:46:02;;;;;;;1.55;0.63;;;9.10;90.10;;;;;;7406004;19;20516;-71
2023/12/02 05:48:27;;;;;;;1.88;0.43;;;9.10;90.10;;;;;;7399065;19;19929;-71
2023/12/02 05:50:53;;;;;;;1.25;0.50;;;9.10;90.20;;;;;;7405615;19;19974;-72
2023/12/02 05:53:19;;;;;;;1.58;0.63;;;9.00;90.40;;;;;;7403547;19;20014;-72
2023/12/02 05:55:46;;;;;;;3.00;0.82;;;8.90;90.90;;;;;;7404210;19;19919;-72
2023/12/02 05:58:12;;;;;;;1.70;0.70;;;8.90;91.10;;;;;;7400835;19;19918;-71
2023/12/02 06:00:38;;;;;;;3.30;0.70;;;8.90;91.10;;;;;;7402407;19;19910;-72
2023/12/02 06:03:03;;;;;;;0.80;0.38;;;8.80;91.30;;;;;;7402255;19;19953;-72
2023/12/02 06:05:29;;;;;;;1.73;0.50;;;8.90;91.50;;;;;;7403920;19;19911;-72
2023/12/02 06:07:55;;;;;;;3.90;0.73;;;8.90;91.20;;;;;;7404044;19;19919;-72
2023/12/02 06:10:21;;;;;;;2.55;0.98;;;8.90;91.40;;;;;;7403232;19;19919;-72
2023/12/02 06:12:47;;;;;;;2.10;0.70;;;8.80;91.50;;;;;;7405818;19;19919;-71
2023/12/02 06:15:13;;;;;;;2.03;0.80;;;8.80;91.50;;;;;;7405150;19;19918;-72
2023/12/02 06:17:39;;;;;;;1.90;0.57;;;8.80;91.30;;;;;;7405655;19;20393;-72
2023/12/02 06:20:06;;;;;;;1.40;0.50;;;8.90;91.40;;;;;;7401044;19;19914;-72
2023/12/02 06:22:35;;;;;;;5.10;1.25;;;8.80;91.00;;;;;;7403764;19;19966;-71
2023/12/02 06:25:02;;;;;;;2.10;0.60;;;8.90;91.00;;;;;;7402562;19;19925;-72
2023/12/02 06:27:28;;;;;;;2.15;0.63;;;8.70;91.30;;;;;;7403691;19;19922;-73
2023/12/02 06:29:53;;;;;;;2.13;0.82;;;8.60;91.80;;;;;;7401529;19;19911;-71
2023/12/02 06:32:19;;;;;;;2.67;0.70;;;8.70;91.90;;;;;;7402586;19;19971;-71
2023/12/02 06:34:45;;;;;;;2.97;0.90;;;8.60;91.50;;;;;;7400925;19;19941;-71
2023/12/02 06:37:11;;;;;;;3.15;0.73;;;8.70;91.60;;;;;;7402670;19;19910;-72
2023/12/02 06:39:36;;;;;;;2.70;0.80;;;8.60;91.60;;;;;;7401730;19;19918;-72
2023/12/02 06:42:02;;;;;;;3.22;0.88;;;8.50;91.90;;;;;;7402350;19;19926;-72
2023/12/02 06:44:28;;;;;;;3.10;1.23;;;8.60;92.70;;;;;;7401704;19;20262;-71
2023/12/02 06:46:54;;;;;;;2.47;0.90;;;8.60;92.30;;;;;;7403118;19;19935;-72
2023/12/02 06:49:20;;;;;;;5.93;1.58;;;8.60;92.10;;;;;;7380433;19;19926;-72
2023/12/02 06:51:47;;;;;;;2.47;0.80;;;8.50;92.30;;;;;;7402766;19;19925;-71
2023/12/02 06:54:12;;;;;;;;;;;8.50;92.50;;;;;;7406100;19;19970;-72
2023/12/02 06:56:38;;;;;;;2.33;0.75;;;8.50;92.30;;;;;;7401659;19;19939;-71
2023/12/02 06:59:04;;;;;;;3.45;0.90;;;8.50;92.40;;;;;;7401295;19;20014;-72
2023/12/02 07:01:32;;;;;;;2.42;0.88;;;8.40;92.70;;;;;;7405618;19;19925;-73
2023/12/02 07:04:00;;;;;;;2.97;0.98;;;8.50;92.80;;;;;;7404475;19;19922;-72
2023/12/02 07:06:27;;;;;;;1.60;0.73;;;8.50;92.50;;;;;;7396158;19;19949;-72
2023/12/02 07:08:54;;;;;;;3.75;0.80;;;8.50;92.40;;;;;;7401301;19;19928;-73
2023/12/02 07:11:21;;;;;;;2.55;0.70;;;8.50;92.60;;;;;;7400365;19;20390;-73
2023/12/02 07:13:48;;;;;;;2.28;0.70;;;8.50;92.60;;;;;;7402391;19;19915;-72
2023/12/02 07:16:13;;;;;;;2.60;0.82;;;8.40;92.70;;;;;;7401127;19;19919;-72
2023/12/02 07:18:40;;;;;;;2.20;0.80;;;8.40;93.10;;;;;;7404141;19;19923;-71
2023/12/02 07:21:07;;;;;;;3.92;1.20;;;8.40;93.20;;;;;;7401202;19;20348;-71
2023/12/02 07:23:34;;;;;;;2.05;0.80;;;8.30;93.30;;;;;;7401215;19;19950;-73
2023/12/02 07:25:59;;;;;;;4.35;1.30;;;8.30;93.70;;;;;;7400960;19;19919;-71
2023/12/02 07:28:26;;;;;;;4.53;1.20;;;8.30;93.80;;;;;;7394861;19;19978;-71
2023/12/02 07:30:52;;;;;;;3.50;1.25;;;8.40;93.60;;;;;;7399601;19;19915;-73
2023/12/02 07:33:21;;;;;;;3.70;1.20;;;8.40;93.70;;;;;;7399411;19;19942;-72
2023/12/02 07:35:46;;;;;;;4.57;1.10;;;8.40;93.70;;;;;;7403780;19;20433;-72
2023/12/02 07:38:12;;;;;;;2.90;0.90;;;8.40;93.70;;;;;;7399336;19;19942;-71
2023/12/02 07:40:38;;;;;;;4.35;1.10;;;8.40;93.50;;;;;;7403582;19;19949;-73
2023/12/02 07:43:05;;;;;;;2.97;1.10;;;8.50;93.10;;;;;;7399760;19;19922;-71
2023/12/02 07:45:31;;;;;;;3.08;0.90;;;8.60;93.20;;;;;;7403429;19;19921;-72
2023/12/02 07:47:57;;;;;;;2.80;1.23;;;8.60;92.80;;;;;;7405066;19;19923;-72
2023/12/02 07:50:23;;;;;;;3.50;1.48;;;8.60;92.60;;;;;;7402837;19;19930;-72
2023/12/02 07:52:49;;;;;;;3.15;1.25;;;8.60;92.90;;;;;;7401489;19;19936;-72
2023/12/02 07:55:15;;;;;;;4.30;1.38;;;8.70;92.60;;;;;;7397997;19;19929;-72
2023/12/02 07:57:41;;;;;;;5.32;1.42;;;8.80;92.50;;;;;;7402409;19;19922;-72
2023/12/02 08:00:11;;;;;;;3.95;1.25;;;8.80;92.20;;;;;;7399264;19;19915;-72
2023/12/02 08:02:37;;;;;;;4.38;1.30;;;8.90;92.00;;;;;;7398367;19;19915;-72
2023/12/02 08:05:04;;;;;;;3.13;1.10;;;8.90;91.60;;;;;;7400327;19;19952;-71
2023/12/02 08:07:30;;;;;;;3.85;1.33;;;9.00;91.30;;;;;;7402231;19;19943;-73
2023/12/02 08:09:56;;;;;;;3.40;1.30;;;9.80;91.00;;;;;;7403457;19;20500;-74
2023/12/02 08:12:22;;;;;;;3.20;1.13;;;9.70;86.40;;;;;;7399095;19;19919;-72
2023/12/02 08:14:48;;;;;;;1.95;0.88;;;9.60;86.50;;;;;;7398667;19;19942;-72
2023/12/02 08:17:14;;;;;;;2.13;0.82;;;11.30;81.50;;;;;;7399667;19;19918;-73
2023/12/02 08:19:39;;;;;;;2.08;0.98;;;12.90;67.40;;;;;;7400842;19;19923;-72
2023/12/02 08:22:06;;;;;;;1.80;0.93;;;13.80;55.40;;;;;;7402255;19;19918;-72
2023/12/02 08:24:36;;;;;;;1.90;0.70;;;14.40;49.90;;;;;;7404858;19;19927;-71
2023/12/02 08:27:02;;;;;;;2.35;0.90;;;14.50;46.50;;;;;;7404395;19;19926;-72
2023/12/02 08:29:27;;;;;;;2.13;0.82;;;15.10;45.70;;;;;;7403071;19;19922;-72
2023/12/02 08:31:53;;;;;;;1.75;0.90;;;15.00;44.80;;;;;;7402985;19;19939;-73
2023/12/02 08:34:19;;;;;;;1.98;0.98;;;15.20;42.20;;;;;;7403090;19;19993;-71
2023/12/02 08:36:44;;;;;;;1.85;0.82;;;14.90;42.30;;;;;;7399846;19;19930;-73
2023/12/02 08:39:10;;;;;;;1.83;1.02;;;14.80;44.10;;;;;;7401221;19;20724;-72
2023/12/02 08:41:36;;;;;;;2.35;1.00;;;15.30;40.90;;;;;;7402604;19;19929;-71
2023/12/02 08:44:03;;;;;;;2.20;1.02;;;14.60;43.50;;;;;;7396879;19;19914;-72
2023/12/02 08:46:28;;;;;;;2.28;0.70;;;14.20;42.90;;;;;;7399786;19;19917;-72
2023/12/02 08:48:54;;;;;;;2.88;0.93;;;13.40;46.40;;;;;;7394970;19;19914;-73
2023/12/02 08:51:21;;;;;;;1.65;0.70;;;12.40;52.20;;;;;;7396339;19;20003;-73
2023/12/02 08:53:51;;;;;;;2.40;1.00;;;12.20;54.80;;;;;;7402641;19;19922;-73
2023/12/02 08:56:17;;;;;;;1.85;0.82;;;11.90;57.70;;;;;;7400329;19;19943;-72
2023/12/02 08:58:43;;;;;;;5.78;3.08;;;11.70;59.80;;;;;;7401954;19;19919;-71
2023/12/02 09:01:08;;;;;;;3.17;0.70;;;11.70;60.30;;;;;;7399606;19;19922;-73
2023/12/02 09:03:34;;;;;;;2.40;0.68;;;11.80;63.50;;;;;;7400119;19;19936;-72
2023/12/02 09:06:00;;;;;;;2.63;1.00;;;11.80;60.10;;;;;;7399311;19;19926;-71
2023/12/02 09:08:27;;;;;;;4.22;1.05;;;11.80;59.40;;;;;;7389908;19;19915;-71
2023/12/02 09:10:53;;;;;;;2.42;1.00;;;11.80;60.60;;;;;;7396477;19;20346;-72
2023/12/02 09:13:47;;;;;;;2.50;1.10;;;11.80;59.70;;;;;;7398739;19;19925;-71
2023/12/02 09:16:26;;;;;;;4.10;1.23;;;12.00;60.40;;;;;;7396547;19;19919;-71
2023/12/02 09:18:51;;;;;;;2.95;0.95;;;12.30;57.30;;;;;;7399771;19;19989;-73
2023/12/02 09:21:40;;;;;;;3.17;0.90;;;12.60;54.00;;;;;;7382303;19;20852;-71
2023/12/02 09:24:42;;;;;;;2.17;0.90;;;12.90;49.70;;;;;;7391331;19;19910;-73
2023/12/02 09:27:08;;;;;;;2.65;0.98;;;13.30;48.00;;;;;;7391844;19;19922;-73
2023/12/02 09:29:41;;;;;;;2.45;1.05;;;13.60;46.80;;;;;;7397977;19;19931;-72
2023/12/02 09:32:08;;;;;;;2.88;1.10;;;13.90;45.70;;;;;;7394769;19;19915;-73
2023/12/02 09:34:40;;;;;;;3.28;1.20;;;14.10;45.30;;;;;;7397382;19;19919;-73
2023/12/02 09:37:20;;;;;;;3.30;1.10;;;14.00;43.40;;;;;;7395419;19;20343;-72
2023/12/02 09:40:24;;;;;;;3.33;1.27;;;14.30;42.10;;;;;;7396935;19;19922;-73
2023/12/02 09:43:05;;;;;;;2.35;1.00;;;14.40;41.30;;;;;;7392868;19;19910;-72
2023/12/02 09:45:53;;;;;;;3.22;1.33;;;14.70;39.60;;;;;;7388720;19;19922;-72
2023/12/02 09:48:26;;;;;;;2.83;1.27;;;15.10;37.80;;;;;;7380299;19;19994;-72
2023/12/02 09:51:10;;;;;;;3.05;1.40;;;15.00;36.60;;;;;;7386858;19;19938;-72
2023/12/02 09:54:18;;;;;;;3.63;1.20;;;14.90;37.10;;;;;;7390428;19;19929;-72
2023/12/02 09:56:51;;;;;;;3.70;1.35;;;15.20;36.70;;;;;;7384898;19;19918;-73
2023/12/02 09:59:49;;;;;;;2.78;1.20;;;15.30;36.00;;;;;;7392116;19;19918;-72
2023/12/02 10:02:33;;;;;;;2.83;0.95;;;15.70;34.30;;;;;;7386492;19;19922;-73
2023/12/02 10:05:04;;;;;;;2.40;1.20;;;15.30;34.20;;;;;;7381586;19;19911;-73
2023/12/02 10:07:34;;;;;;;2.55;1.00;;;15.40;34.60;;;;;;7390486;19;19919;-71
2023/12/02 10:10:09;;;;;;;2.17;1.02;;;15.00;35.00;;;;;;7389235;19;19929;-71
2023/12/02 10:13:17;;;;;;;1.92;0.90;;;14.80;34.60;;;;;;7391935;19;19914;-72
2023/12/02 10:15:45;;;;;;;2.08;1.02;;;15.20;34.30;;;;;;7383712;19;20473;-72
2023/12/02 10:18:13;;;;;;;3.25;1.08;;;14.90;34.80;;;;;;7393088;19;19927;-72
2023/12/02 10:20:41;;;;;;;2.17;1.20;;;15.60;33.80;;;;;;7401326;19;19923;-72
2023/12/02 10:23:31;;;;;;;3.30;1.00;;;15.60;32.40;;;;;;7391721;19;19925;-73
2023/12/02 10:25:57;;;;;;;4.07;1.15;;;15.80;31.40;;;;;;7399737;19;20567;-71
2023/12/02 10:28:53;;;;;;;3.10;1.10;;;16.20;31.40;;;;;;7401018;19;19930;-72
2023/12/02 10:31:28;;;;;;;2.65;1.13;;;16.60;30.10;;;;;;7395249;19;19921;-73
2023/12/02 10:34:23;;;;;;;3.42;1.63;;;16.80;28.30;;;;;;7400850;19;20339;-73
2023/12/02 10:36:52;;;;;;;2.92;0.73;;;16.40;28.00;;;;;;7396203;19;19914;-72
2023/12/02 10:39:53;;;;;;;2.25;1.08;;;16.80;27.80;;;;;;7398777;19;19922;-73
2023/12/02 10:42:34;;;;;;;2.38;0.98;;;17.50;26.90;;;;;;7402097;19;19938;-74
2023/12/02 10:45:05;;;;;;;2.53;0.98;;;17.20;23.90;;;;;;7403375;19;19911;-72
2023/12/02 10:47:32;;;;;;;2.42;0.80;;;17.80;24.50;;;;;;7400829;19;19922;-73
2023/12/02 10:50:02;;;;;;;2.25;1.25;;;18.00;23.40;;;;;;7403436;19;19938;-73
2023/12/02 10:52:31;;;;;;;2.53;1.02;;;17.70;23.80;;;;;;7401003;19;20326;-73
2023/12/02 10:55:01;;;;;;;1.90;1.05;;;18.00;22.60;;;;;;7401889;19;19919;-72
2023/12/02 10:57:28;;;;;;;2.03;1.02;;;17.60;22.20;;;;;;7402903;19;20339;-72
2023/12/02 11:00:11;;;;;;;2.65;0.98;;;17.70;22.80;;;;;;7400721;19;19927;-72
2023/12/02 11:02:49;;;;;;;3.58;0.80;;;18.00;23.20;;;;;;7402751;19;19948;-74
2023/12/02 11:05:23;;;;;;;;;;;18.10;21.40;;;;;;7403296;19;19950;-73
2023/12/02 11:07:53;;;;;;;2.17;1.02;;;19.20;19.70;;;;;;7401273;19;19919;-74
2023/12/02 11:10:47;;;;;;;2.38;0.98;;;19.30;19.20;;;;;;7399472;19;19914;-73
2023/12/02 11:13:18;;;;;;;3.50;1.33;;;19.50;18.60;;;;;;7396624;19;19922;-74
2023/12/02 11:16:22;;;;;;;1.73;0.98;;;19.30;17.30;;;;;;7400622;19;19925;-73
2023/12/02 11:19:06;;;;;;;2.92;0.90;;;18.20;17.80;;;;;;7399219;19;19910;-73
2023/12/02 11:21:41;;;;;;;2.72;0.90;;;18.90;18.90;;;;;;7400212;19;19930;-74
2023/12/02 11:24:07;;;;;;;2.10;0.80;;;19.30;18.10;;;;;;7397219;19;19918;-74
2023/12/02 11:26:46;;;;;;;2.78;1.20;;;20.00;17.10;;;;;;7400899;19;20287;-74
2023/12/02 11:29:27;;;;;;;2.63;1.00;;;20.30;15.20;;;;;;7397439;19;20347;-73
2023/12/02 11:32:14;;;;;;;2.58;1.20;;;20.70;14.60;;;;;;7402056;19;19922;-74
2023/12/02 11:35:19;;;;;;;2.58;1.20;;;20.90;13.50;;;;;;7396223;19;19922;-73
2023/12/02 11:38:08;;;;;;;2.45;1.00;;;20.20;14.50;;;;;;7398674;19;20018;-72
2023/12/02 11:40:50;;;;;;;3.08;1.02;;;19.30;15.30;;;;;;7402634;19;19938;-73
2023/12/02 11:43:47;;;;;;;2.70;1.02;;;19.00;13.90;;;;;;7404165;19;20003;-74
2023/12/02 11:46:18;;;;;;;;;;;20.60;13.00;;;;;;7406125;19;19925;-73
2023/12/02 11:48:56;;;;;;;2.28;1.00;;;19.70;11.90;;;;;;7399799;19;19921;-73
2023/12/02 11:51:58;;;;;;;2.45;1.20;;;19.30;11.60;;;;;;7402241;19;19991;-74
2023/12/02 11:54:49;;;;;;;2.70;0.90;;;20.50;13.20;;;;;;7404337;19;19923;-74
2023/12/02 11:57:25;;;;;;;2.50;1.42;;;21.80;10.70;;;;;;7397409;19;20302;-73
2023/12/02 12:00:18;;;;;;;3.50;0.90;;;22.40;9.60;;;;;;7405695;19;19925;-73
2023/12/02 12:02:53;;;;;;;3.17;1.13;;;21.20;10.60;;;;;;7402162;19;19922;-73
2023/12/02 12:05:32;;;;;;;5.45;1.13;;;21.40;10.70;;;;;;7399682;19;20480;-73
2023/12/02 12:08:11;;;;;;;2.78;1.58;;;21.30;10.70;;;;;;7401860;19;19933;-73
2023/12/02 12:10:38;;;;;;;2.45;1.20;;;21.50;10.40;;;;;;7399324;19;19922;-73
2023/12/02 12:13:06;;;;;;;4.00;1.60;;;21.70;10.00;;;;;;7399971;19;19930;-73
2023/12/02 12:15:32;;;;;;;3.85;1.42;;;21.20;10.00;;;;;;7400947;19;19915;-73
2023/12/02 12:17:58;;;;;;;4.40;1.50;;;22.20;9.70;;;;;;7399667;19;19922;-73
2023/12/02 12:20:29;;;;;;;2.50;1.13;;;23.00;7.70;;;;;;7399666;19;19914;-73
2023/12/02 12:22:55;;;;;;;2.90;2.45;;;22.90;7.70;;;;;;7400486;19;20714;-73
2023/12/02 12:25:22;;;;;;;2.25;1.63;;;23.00;7.50;;;;;;7400374;19;19910;-73
2023/12/02 12:27:48;;;;;;;3.28;1.35;;;22.20;6.20;;;;;;7399806;19;20398;-74
2023/12/02 12:30:14;;;;;;;2.85;1.20;;;22.00;7.00;;;;;;7398944;19;19919;-73
2023/12/02 12:32:40;;;;;;;2.63;1.08;;;21.60;7.90;;;;;;7401292;19;19914;-74
2023/12/02 12:35:11;;;;;;;1.90;0.93;;;22.70;7.10;;;;;;7399478;19;19923;-73
2023/12/02 12:37:39;;;;;;;2.70;1.95;;;22.60;6.30;;;;;;7404008;19;19917;-73
2023/12/02 12:40:08;;;;;;;2.97;1.20;;;21.30;6.80;;;;;;7397482;19;20251;-74
2023/12/02 12:42:33;;;;;;;3.58;1.60;;;22.40;7.60;;;;;;7400454;19;19974;-73
2023/12/02 12:45:01;;;;;;;2.58;1.23;;;23.00;6.50;;;;;;7402708;19;20874;-73
2023/12/02 12:47:30;;;;;;;2.97;1.23;;;21.70;7.40;;;;;;7401730;19;20267;-74
2023/12/02 12:49:59;;;;;;;5.00;2.58;;;21.40;6.80;;;;;;7402869;19;19907;-72
2023/12/02 12:52:26;;;;;;;3.55;1.65;;;22.90;6.30;;;;;;7400801;19;20505;-73
2023/12/02 12:54:58;;;;;;;2.65;0.98;;;23.00;4.90;;;;;;7379850;19;19969;-74
2023/12/02 12:57:40;;;;;;;3.13;1.40;;;23.10;4.20;;;;;;7399279;19;19919;-72
2023/12/02 13:00:13;;;;;;;2.50;0.95;;;23.30;3.90;;;;;;7397283;19;20351;-72
2023/12/02 13:03:02;;;;;;;2.33;1.30;;;22.10;3.50;;;;;;7392387;19;19921;-73
2023/12/02 13:05:35;;;;;;;3.42;2.30;;;21.60;3.40;;;;;;7394863;19;20259;-73